Time;durP1;ratioP1;P1;durP2;ratioP2;P2;SDS_P1;SDS_P2;PMS_P1;PMS_P2;Temp;Humidity;BMP_temperature;BMP_pressure;BME280_temperature;BME280_humidity;BME280_pressure;Samples;Min_cycle;Max_cycle;Signal;HPM_P1;HPM_P2
2023/01/04 00:01:00;;;;;;;13.40;2.78;;;;;;;;;;6208258;23;20480;-92
2023/01/04 00:03:26;;;;;;;6.10;1.92;;;;;;;;;;6208024;23;20013;-91
2023/01/04 00:05:52;;;;;;;12.35;2.45;;;;;;;;;;6158111;23;20066;-92
2023/01/04 00:08:18;;;;;;;5.60;1.63;;;;;;;;;;6158659;23;20162;-92
2023/01/04 00:10:44;;;;;;;9.85;1.40;;;;;;;;;;6207155;23;20047;-92
2023/01/04 00:13:10;;;;;;;5.20;1.90;;;;;;;;;;6208668;23;20645;-92
2023/01/04 00:15:36;;;;;;;6.95;2.20;;;;;;;;;;6208254;23;20019;-91
2023/01/04 00:18:02;;;;;;;6.15;1.67;;;;;;;;;;6158065;23;20012;-92
2023/01/04 00:20:28;;;;;;;6.65;2.78;;;;;;;;;;6157977;23;20024;-92
2023/01/04 00:22:54;;;;;;;8.32;1.52;;;;;;;;;;6182541;23;20457;-91
2023/01/04 00:25:20;;;;;;;4.70;1.83;;;;;;;;;;6157085;23;20008;-91
2023/01/04 00:27:46;;;;;;;7.40;2.10;;;;;;;;;;6207909;23;20023;-93
2023/01/04 00:30:13;;;;;;;7.00;2.10;;;;;;;;;;6181922;23;20176;-91
2023/01/04 00:32:39;;;;;;;8.48;2.97;;;;;;;;;;6158075;23;20009;-92
2023/01/04 00:35:05;;;;;;;7.32;2.30;;;;;;;;;;6209259;23;20062;-93
2023/01/04 00:37:31;;;;;;;5.35;2.40;;;;;;;;;;6156725;23;20013;-92
2023/01/04 00:39:57;;;;;;;2.90;1.33;;;;;;;;;;6159135;23;20253;-90
2023/01/04 00:42:23;;;;;;;7.38;2.17;;;;;;;;;;6158778;23;20040;-92
2023/01/04 00:44:49;;;;;;;3.72;1.40;;;;;;;;;;6159583;23;20023;-92
2023/01/04 00:47:15;;;;;;;5.18;2.63;;;;;;;;;;6159210;23;20024;-92
2023/01/04 00:49:41;;;;;;;19.45;2.80;;;;;;;;;;6160093;23;20584;-91
2023/01/04 00:52:07;;;;;;;5.93;1.80;;;;;;;;;;6158032;23;20659;-92
2023/01/04 00:54:34;;;;;;;8.95;2.65;;;;;;;;;;6208364;23;20012;-92
2023/01/04 00:57:00;;;;;;;9.20;2.10;;;;;;;;;;6210096;23;20049;-91
2023/01/04 00:59:26;;;;;;;3.35;1.27;;;;;;;;;;6208607;23;20019;-91
2023/01/04 01:01:52;;;;;;;4.35;1.70;;;;;;;;;;6159392;23;20063;-92
2023/01/04 01:04:19;;;;;;;2.53;1.67;;;;;;;;;;6156253;23;20376;-91
2023/01/04 01:06:45;;;;;;;8.75;2.78;;;;;;;;;;6207054;23;20012;-91
2023/01/04 01:09:12;;;;;;;3.88;1.67;;;;;;;;;;6209830;23;20012;-91
2023/01/04 01:11:39;;;;;;;7.80;2.47;;;;;;;;;;6208464;23;20380;-92
2023/01/04 01:14:05;;;;;;;7.15;2.45;;;;;;;;;;6210178;23;20095;-92
2023/01/04 01:16:31;;;;;;;5.63;2.30;;;;;;;;;;6208503;23;20016;-91
2023/01/04 01:18:57;;;;;;;13.93;2.88;;;;;;;;;;6160067;23;20032;-90
2023/01/04 01:21:24;;;;;;;8.98;2.45;;;;;;;;;;6209169;23;20000;-91
2023/01/04 01:23:51;;;;;;;10.07;2.70;;;;;;;;;;6160853;23;20024;-91
2023/01/04 01:26:19;;;;;;;5.65;2.58;;;;;;;;;;6209362;23;20036;-91
2023/01/04 01:28:45;;;;;;;6.88;1.63;;;;;;;;;;6211982;23;20001;-91
2023/01/04 01:31:13;;;;;;;9.25;2.85;;;;;;;;;;6159480;23;20047;-92
2023/01/04 01:33:40;;;;;;;4.35;1.70;;;;;;;;;;6209297;23;20378;-91
2023/01/04 01:36:06;;;;;;;7.72;2.33;;;;;;;;;;6209729;23;20505;-91
2023/01/04 01:38:33;;;;;;;3.40;2.15;;;;;;;;;;6159536;23;20345;-92
2023/01/04 01:40:59;;;;;;;6.00;2.95;;;;;;;;;;6209588;23;20016;-91
2023/01/04 01:43:44;;;;;;;16.65;2.30;;;;;;;;;;6210893;23;20032;-92
2023/01/04 01:46:10;;;;;;;16.15;2.15;;;;;;;;;;6212868;23;20015;-90
2023/01/04 01:48:36;;;;;;;6.25;1.90;;;;;;;;;;6162387;23;20008;-91
2023/01/04 01:51:03;;;;;;;6.05;2.78;;;;;;;;;;6162337;23;20016;-92
2023/01/04 01:53:31;;;;;;;3.95;2.33;;;;;;;;;;6210477;23;20011;-91
2023/01/04 01:55:58;;;;;;;9.07;2.30;;;;;;;;;;6209665;23;20594;-90
2023/01/04 01:58:36;;;;;;;3.25;1.90;;;;;;;;;;6157910;23;20421;-91
2023/01/04 02:01:02;;;;;;;3.75;1.95;;;;;;;;;;6205604;23;20080;-91
2023/01/04 02:03:34;;;;;;;4.13;1.92;;;;;;;;;;6208549;23;20008;-92
2023/01/04 02:06:01;;;;;;;1.83;1.30;;;;;;;;;;6208769;23;20456;-91
2023/01/04 02:08:27;;;;;;;3.80;1.83;;;;;;;;;;6159091;23;20421;-91
2023/01/04 02:10:53;;;;;;;3.53;1.35;;;;;;;;;;6159176;23;20075;-90
2023/01/04 02:13:22;;;;;;;2.28;1.13;;;;;;;;;;6185672;23;20067;-91
2023/01/04 02:16:08;;;;;;;2.03;1.40;;;;;;;;;;6210295;23;20015;-91
2023/01/04 02:18:37;;;;;;;4.85;2.13;;;;;;;;;;6185116;23;20031;-92
2023/01/04 02:21:16;;;;;;;7.10;1.83;;;;;;;;;;6209571;23;20528;-91
2023/01/04 02:23:57;;;;;;;3.63;1.17;;;;;;;;;;6212137;22;20555;-91
2023/01/04 02:26:52;;;;;;;1.20;0.93;;;;;;;;;;6183447;23;20008;-91
2023/01/04 02:29:18;;;;;;;5.10;1.35;;;;;;;;;;6209255;23;20009;-91
2023/01/04 02:31:49;;;;;;;2.00;0.95;;;;;;;;;;6184192;23;20008;-91
2023/01/04 02:34:27;;;;;;;1.83;1.05;;;;;;;;;;6184794;23;20008;-92
2023/01/04 02:37:01;;;;;;;1.73;0.95;;;;;;;;;;6210213;23;20237;-91
2023/01/04 02:39:38;;;;;;;0.88;0.88;;;;;;;;;;6210668;23;20004;-92
2023/01/04 02:42:04;;;;;;;0.50;0.50;;;;;;;;;;6184281;23;20020;-90
2023/01/04 02:44:54;;;;;;;1.00;0.88;;;;;;;;;;6184812;23;20012;-91
2023/01/04 02:50:29;;;;;;;1.45;0.70;;;;;;;;;;6185569;23;20468;-92
2023/01/04 02:50:29;;;;;;;17.77;1.30;;;;;;;;;;6213065;23;20066;-92
2023/01/04 02:52:56;;;;;;;0.40;0.30;;;;;;;;;;6183434;23;20008;-92
2023/01/04 02:55:22;;;;;;;0.77;0.77;;;;;;;;;;6186017;23;20012;-92
2023/01/04 02:57:52;;;;;;;0.75;0.68;;;;;;;;;;6160589;23;20008;-92
2023/01/04 03:00:28;;;;;;;1.10;0.70;;;;;;;;;;6186173;23;20018;-92
2023/01/04 03:08:59;;;;;;;1.23;0.65;;;;;;;;;;6211955;23;19950;-92
2023/01/04 03:14:21;;;;;;;0.60;0.60;;;;;;;;;;6213586;23;20023;-92
2023/01/04 03:16:48;;;;;;;1.55;0.60;;;;;;;;;;6187275;23;20495;-92
2023/01/04 03:19:50;;;;;;;0.25;0.25;;;;;;;;;;6186640;23;20423;-92
2023/01/04 03:22:02;;;;;;;0.63;0.25;;;;;;;;;;6211020;23;20012;-91
2023/01/04 03:35:55;;;;;;;0.82;0.30;;;;;;;;;;6212586;23;20027;-92
2023/01/04 03:50:00;;;;;;;0.45;0.45;;;;;;;;;;6212103;23;20015;-93
2023/01/04 03:52:28;;;;;;;0.00;0.00;;;;;;;;;;6211383;23;20001;-92
2023/01/04 03:54:55;;;;;;;0.20;0.20;;;;;;;;;;6212245;23;20095;-93
2023/01/04 03:57:21;;;;;;;0.15;0.00;;;;;;;;;;6212551;23;20000;-92
2023/01/04 03:59:50;;;;;;;1.65;0.20;;;;;;;;;;6162110;23;20063;-93
2023/01/04 04:02:18;;;;;;;0.20;0.15;;;;;;;;;;6213240;23;20008;-93
2023/01/04 04:10:14;;;;;;;0.00;0.00;;;;;;;;;;6193838;23;20043;-93
2023/01/04 04:12:42;;;;;;;0.00;0.00;;;;;;;;;;6212189;23;20016;-93
2023/01/04 04:15:08;;;;;;;0.10;0.00;;;;;;;;;;6213555;23;20036;-93
2023/01/04 04:17:34;;;;;;;0.13;0.13;;;;;;;;;;6162863;23;20013;-93
2023/01/04 04:20:00;;;;;;;0.52;0.28;;;;;;;;;;6164156;23;20020;-94
2023/01/04 04:22:26;;;;;;;0.50;0.10;;;;;;;;;;6212509;23;20012;-93
2023/01/04 04:24:52;;;;;;;0.00;0.00;;;;;;;;;;6190085;23;20025;-93
2023/01/04 04:27:18;;;;;;;0.13;0.13;;;;;;;;;;6163889;23;20019;-93
2023/01/04 04:29:44;;;;;;;0.03;0.03;;;;;;;;;;6163329;23;19993;-93
2023/01/04 04:32:10;;;;;;;0.22;0.22;;;;;;;;;;6162838;23;20008;-94
2023/01/04 04:34:36;;;;;;;0.20;0.20;;;;;;;;;;6212182;23;20036;-92
2023/01/04 04:37:02;;;;;;;0.10;0.10;;;;;;;;;;6162584;23;20009;-93
2023/01/04 04:39:28;;;;;;;0.75;0.75;;;;;;;;;;6214028;23;20035;-93
2023/01/04 04:41:54;;;;;;;1.23;0.82;;;;;;;;;;6163696;23;20101;-94
2023/01/04 04:44:20;;;;;;;0.57;0.52;;;;;;;;;;6164545;23;20024;-92
2023/01/04 04:46:47;;;;;;;0.00;0.00;;;;;;;;;;6211542;23;20429;-93
2023/01/04 04:49:13;;;;;;;0.75;0.22;;;;;;;;;;6213611;23;20054;-92
2023/01/04 04:51:40;;;;;;;0.43;0.22;;;;;;;;;;6213999;23;20004;-93
2023/01/04 04:54:06;;;;;;;0.20;0.20;;;;;;;;;;6212273;23;20559;-92
2023/01/04 04:56:32;;;;;;;0.10;0.10;;;;;;;;;;6213089;23;20139;-93
2023/01/04 04:58:58;;;;;;;0.55;0.55;;;;;;;;;;6212403;23;20008;-93
2023/01/04 05:01:25;;;;;;;0.70;0.65;;;;;;;;;;6212511;23;20632;-94
2023/01/04 05:03:51;;;;;;;0.10;0.10;;;;;;;;;;6163947;23;20016;-92
2023/01/04 05:06:17;;;;;;;0.68;0.68;;;;;;;;;;6162879;23;20004;-92
2023/01/04 05:08:43;;;;;;;0.52;0.30;;;;;;;;;;6162778;23;20009;-93
2023/01/04 05:11:10;;;;;;;0.73;0.57;;;;;;;;;;6163391;23;20452;-93
2023/01/04 05:13:36;;;;;;;1.23;0.98;;;;;;;;;;6213177;23;20009;-93
2023/01/04 05:16:03;;;;;;;1.77;0.52;;;;;;;;;;6213506;23;20004;-92
2023/01/04 05:18:29;;;;;;;1.02;0.70;;;;;;;;;;6214128;23;20425;-94
2023/01/04 05:20:55;;;;;;;0.98;0.17;;;;;;;;;;6213069;23;20451;-94
2023/01/04 05:23:34;;;;;;;0.70;0.28;;;;;;;;;;6164365;22;20058;-94
2023/01/04 05:26:01;;;;;;;0.95;0.68;;;;;;;;;;6164862;23;20656;-94
2023/01/04 05:28:27;;;;;;;0.10;0.10;;;;;;;;;;6162449;23;20013;-94
2023/01/04 05:30:54;;;;;;;0.47;0.20;;;;;;;;;;6162561;23;20019;-93
2023/01/04 05:33:24;;;;;;;0.47;0.30;;;;;;;;;;6186877;23;20034;-93
2023/01/04 05:35:51;;;;;;;0.40;0.32;;;;;;;;;;6188611;23;20008;-94
2023/01/04 05:38:17;;;;;;;0.28;0.28;;;;;;;;;;6186947;23;20401;-93
2023/01/04 05:40:44;;;;;;;0.30;0.30;;;;;;;;;;6187330;23;20437;-93
2023/01/04 05:43:20;;;;;;;0.30;0.30;;;;;;;;;;6186730;23;20012;-94
2023/01/04 05:45:53;;;;;;;0.10;0.10;;;;;;;;;;6187946;23;20098;-93
2023/01/04 05:48:19;;;;;;;0.40;0.30;;;;;;;;;;6186243;23;20356;-94
2023/01/04 05:50:48;;;;;;;0.43;0.43;;;;;;;;;;6162950;23;20103;-93
2023/01/04 05:53:18;;;;;;;0.38;0.38;;;;;;;;;;6162931;23;20019;-92
2023/01/04 05:55:44;;;;;;;0.95;0.50;;;;;;;;;;6187281;23;20000;-94
2023/01/04 05:58:10;;;;;;;0.30;0.30;;;;;;;;;;6163001;23;20078;-93
2023/01/04 06:00:40;;;;;;;0.17;0.17;;;;;;;;;;6186857;23;20012;-94
2023/01/04 06:03:06;;;;;;;1.00;0.60;;;;;;;;;;6161386;23;20012;-94
2023/01/04 06:05:32;;;;;;;0.03;0.03;;;;;;;;;;6188079;23;20008;-94
2023/01/04 06:07:58;;;;;;;0.00;0.00;;;;;;;;;;6186462;23;20099;-94
2023/01/04 06:10:24;;;;;;;1.75;0.65;;;;;;;;;;6186423;23;20485;-93
2023/01/04 06:13:04;;;;;;;0.35;0.32;;;;;;;;;;6162006;23;20021;-94
2023/01/04 06:15:30;;;;;;;3.72;0.47;;;;;;;;;;6209302;23;20091;-94
2023/01/04 06:17:57;;;;;;;0.20;0.10;;;;;;;;;;6162461;23;20008;-93
2023/01/04 06:20:23;;;;;;;0.30;0.20;;;;;;;;;;6187462;23;20015;-95
2023/01/04 06:22:49;;;;;;;0.38;0.38;;;;;;;;;;6161585;23;20011;-94
2023/01/04 06:25:21;;;;;;;0.35;0.25;;;;;;;;;;6162724;23;20020;-94
2023/01/04 06:27:53;;;;;;;0.13;0.13;;;;;;;;;;6162652;23;20015;-93
2023/01/04 06:30:20;;;;;;;0.25;0.05;;;;;;;;;;6211495;23;20008;-93
2023/01/04 06:33:18;;;;;;;0.17;0.17;;;;;;;;;;6161666;23;20016;-94
2023/01/04 06:36:02;;;;;;;0.65;0.22;;;;;;;;;;6206795;23;20079;-94
2023/01/04 06:41:43;;;;;;;0.30;0.25;;;;;;;;;;6064684;23;20006;-94
2023/01/04 06:54:14;;;;;;;;;;;;;;;;;;;;;
2023/01/04 09:26:58;;;;;;;0.00;0.00;;;;;;;;;;6217950;22;20023;-95
2023/01/04 09:29:26;;;;;;;0.00;0.00;;;;;;;;;;6167907;23;20012;-95
2023/01/04 09:31:52;;;;;;;0.00;0.00;;;;;;;;;;6188283;23;20437;-96
2023/01/04 09:34:18;;;;;;;0.00;0.00;;;;;;;;;;6162910;23;20012;-96
2023/01/04 09:36:45;;;;;;;0.00;0.00;;;;;;;;;;6185851;23;20005;-95
2023/01/04 09:39:11;;;;;;;0.00;0.00;;;;;;;;;;6161528;23;20071;-96
2023/01/04 09:41:39;;;;;;;0.00;0.00;;;;;;;;;;6160631;23;20015;-96
2023/01/04 09:44:08;;;;;;;0.00;0.00;;;;;;;;;;6186520;23;20004;-96
2023/01/04 09:46:38;;;;;;;0.00;0.00;;;;;;;;;;6186433;23;20009;-96
2023/01/04 09:49:07;;;;;;;0.00;0.00;;;;;;;;;;6188403;23;20013;-96
2023/01/04 09:51:36;;;;;;;0.00;0.00;;;;;;;;;;6186065;23;20356;-96
2023/01/04 09:54:06;;;;;;;0.00;0.00;;;;;;;;;;6187749;23;20009;-96
2023/01/04 09:56:33;;;;;;;0.00;0.00;;;;;;;;;;6186201;23;20000;-96
2023/01/04 09:59:06;;;;;;;1.02;0.93;;;;;;;;;;6185308;23;20008;-96
2023/01/04 10:01:41;;;;;;;0.00;0.00;;;;;;;;;;6186563;23;20012;-96
2023/01/04 10:04:13;;;;;;;0.00;0.00;;;;;;;;;;6185419;23;20009;-96
2023/01/04 10:06:41;;;;;;;0.00;0.00;;;;;;;;;;6186406;23;20493;-95
2023/01/04 10:09:12;;;;;;;0.00;0.00;;;;;;;;;;6186585;23;20032;-96
2023/01/04 10:11:41;;;;;;;0.00;0.00;;;;;;;;;;6186497;23;20099;-96
2023/01/04 10:14:07;;;;;;;0.00;0.00;;;;;;;;;;6185559;23;20062;-96
2023/01/04 10:17:02;;;;;;;0.00;0.00;;;;;;;;;;6186812;23;20349;-96
2023/01/04 10:19:41;;;;;;;0.00;0.00;;;;;;;;;;6161433;23;20080;-96
2023/01/04 10:22:22;;;;;;;0.00;0.00;;;;;;;;;;6186212;23;20298;-96
2023/01/04 10:24:51;;;;;;;0.00;0.00;;;;;;;;;;6186320;23;20005;-95
2023/01/04 10:27:29;;;;;;;1.45;1.30;;;;;;;;;;6186532;22;20086;-96
2023/01/04 10:29:55;;;;;;;0.00;0.00;;;;;;;;;;6195995;23;20001;-96
2023/01/04 10:40:24;;;;;;;0.00;0.00;;;;;;;;;;6213634;22;19920;-92
2023/01/04 10:43:15;;;;;;;0.03;0.03;;;;;;;;;;6156554;23;20013;-92
2023/01/04 10:51:52;;;;;;;0.45;0.45;;;;;;;;;;6183212;23;19915;-92
2023/01/04 10:54:21;;;;;;;0.00;0.00;;;;;;;;;;6157266;23;20005;-91
2023/01/04 10:56:51;;;;;;;0.05;0.05;;;;;;;;;;6154824;23;20012;-92
2023/01/04 10:59:28;;;;;;;0.00;0.00;;;;;;;;;;6153986;23;20017;-90
2023/01/04 11:01:59;;;;;;;0.00;0.00;;;;;;;;;;6154606;23;20017;-92
2023/01/04 11:04:33;;;;;;;0.00;0.00;;;;;;;;;;6154206;23;20071;-91
2023/01/04 11:07:05;;;;;;;0.38;0.38;;;;;;;;;;6180583;23;20012;-91
2023/01/04 11:09:39;;;;;;;0.00;0.00;;;;;;;;;;6159357;23;20030;-90
2023/01/04 11:12:06;;;;;;;0.00;0.00;;;;;;;;;;6157677;23;20005;-91
2023/01/04 11:14:32;;;;;;;0.00;0.00;;;;;;;;;;6157259;23;20005;-90
2023/01/04 11:17:01;;;;;;;0.30;0.30;;;;;;;;;;6131501;23;20013;-91
2023/01/04 11:19:28;;;;;;;0.65;0.57;;;;;;;;;;6156870;23;20009;-91
2023/01/04 11:22:04;;;;;;;0.90;0.43;;;;;;;;;;6172616;23;20008;-90
2023/01/04 11:24:31;;;;;;;0.80;0.80;;;;;;;;;;6187196;23;20016;-91
2023/01/04 11:26:59;;;;;;;5.38;3.50;;;;;;;;;;6161279;23;20769;-90
2023/01/04 11:29:28;;;;;;;19.17;2.10;;;;;;;;;;6186284;23;20441;-90
2023/01/04 11:32:02;;;;;;;14.05;1.90;;;;;;;;;;6187249;23;20326;-90
2023/01/04 11:34:45;;;;;;;22.73;3.25;;;;;;;;;;6187887;23;20011;-90
2023/01/04 11:37:24;;;;;;;13.93;3.17;;;;;;;;;;6163170;23;20009;-90
2023/01/04 11:39:51;;;;;;;9.75;2.72;;;;;;;;;;6188195;23;20515;-90
2023/01/04 11:42:20;;;;;;;5.78;1.73;;;;;;;;;;6234316;22;20098;-90
2023/01/04 11:44:57;;;;;;;12.45;2.13;;;;;;;;;;6247896;22;20012;-90
2023/01/04 11:47:24;;;;;;;11.93;2.00;;;;;;;;;;6247295;22;20008;-90
2023/01/04 11:49:50;;;;;;;24.23;3.00;;;;;;;;;;6247284;22;20342;-90
2023/01/04 11:52:31;;;;;;;14.32;3.22;;;;;;;;;;6247177;22;20531;-91
2023/01/04 11:55:15;;;;;;;18.50;2.78;;;;;;;;;;6247212;22;20423;-90
2023/01/04 11:57:41;;;;;;;15.25;2.92;;;;;;;;;;6245263;22;20027;-90
2023/01/04 12:00:09;;;;;;;17.73;3.40;;;;;;;;;;6222060;22;20440;-90
2023/01/04 12:02:35;;;;;;;20.60;4.97;;;;;;;;;;6245486;22;20004;-91
2023/01/04 12:05:01;;;;;;;18.58;3.15;;;;;;;;;;6221476;22;20138;-91
2023/01/04 12:07:34;;;;;;;20.48;4.18;;;;;;;;;;6245487;22;20015;-91
2023/01/04 12:10:02;;;;;;;29.48;4.45;;;;;;;;;;6246820;22;20049;-90
2023/01/04 12:12:30;;;;;;;16.42;3.25;;;;;;;;;;6245700;22;20007;-90
2023/01/04 12:14:57;;;;;;;14.57;2.90;;;;;;;;;;6222006;22;20065;-90
2023/01/04 12:17:23;;;;;;;26.52;3.75;;;;;;;;;;6245441;22;20008;-90
2023/01/04 12:19:52;;;;;;;28.52;3.20;;;;;;;;;;6242796;22;20338;-90
2023/01/04 12:22:24;;;;;;;22.10;2.83;;;;;;;;;;6241126;22;20404;-90
2023/01/04 12:24:52;;;;;;;13.80;3.00;;;;;;;;;;6242711;22;20068;-90
2023/01/04 12:27:18;;;;;;;14.48;2.45;;;;;;;;;;6217036;22;20012;-90
2023/01/04 12:29:47;;;;;;;27.17;4.20;;;;;;;;;;6242289;22;20063;-90
2023/01/04 12:32:16;;;;;;;32.90;3.53;;;;;;;;;;6241869;22;19995;-90
2023/01/04 12:34:43;;;;;;;6.10;2.55;;;;;;;;;;6243049;22;20014;-89
2023/01/04 12:37:10;;;;;;;8.48;2.22;;;;;;;;;;6241256;22;20016;-89
2023/01/04 12:39:46;;;;;;;18.02;2.90;;;;;;;;;;6242798;22;20430;-90
2023/01/04 12:42:27;;;;;;;17.67;2.85;;;;;;;;;;6238782;22;20024;-93
2023/01/04 12:44:55;;;;;;;9.63;2.45;;;;;;;;;;6211918;23;20031;-90
2023/01/04 12:50:21;;;;;;;8.52;1.98;;;;;;;;;;6239596;23;20518;-90
2023/01/04 12:52:55;;;;;;;6.65;2.40;;;;;;;;;;6236406;23;20004;-90
2023/01/04 12:55:34;;;;;;;8.00;1.90;;;;;;;;;;6237061;23;20062;-90
2023/01/04 12:58:23;;;;;;;7.68;1.70;;;;;;;;;;6236527;23;20463;-89
2023/01/04 13:00:49;;;;;;;10.07;2.17;;;;;;;;;;6236043;23;20269;-90
2023/01/04 13:03:15;;;;;;;16.63;2.13;;;;;;;;;;6237623;23;20015;-89
2023/01/04 13:05:53;;;;;;;10.02;1.85;;;;;;;;;;6239523;23;20601;-89
2023/01/04 13:08:19;;;;;;;10.68;2.22;;;;;;;;;;6239474;23;20058;-90
2023/01/04 13:10:45;;;;;;;14.43;2.15;;;;;;;;;;6213621;23;20103;-90
2023/01/04 13:13:30;;;;;;;12.80;1.73;;;;;;;;;;6241682;23;20028;-90
2023/01/04 13:15:59;;;;;;;18.73;2.13;;;;;;;;;;6239445;23;20008;-89
2023/01/04 13:18:25;;;;;;;6.57;2.60;;;;;;;;;;6239922;23;20718;-89
2023/01/04 13:20:51;;;;;;;9.65;1.92;;;;;;;;;;6239150;23;20502;-89
2023/01/04 13:23:17;;;;;;;5.88;1.55;;;;;;;;;;6213225;23;20344;-89
2023/01/04 13:25:43;;;;;;;8.32;1.50;;;;;;;;;;6240022;23;20008;-89
2023/01/04 13:28:15;;;;;;;7.45;1.38;;;;;;;;;;6214838;23;20437;-90
2023/01/04 13:30:41;;;;;;;9.00;1.58;;;;;;;;;;6239502;23;20051;-89
2023/01/04 13:33:09;;;;;;;28.15;3.33;;;;;;;;;;6214463;23;20318;-90
2023/01/04 13:35:35;;;;;;;19.15;3.03;;;;;;;;;;6239780;23;20011;-90
2023/01/04 13:38:01;;;;;;;13.40;2.53;;;;;;;;;;6239754;23;20087;-90
2023/01/04 13:40:30;;;;;;;6.75;1.63;;;;;;;;;;6216076;22;20012;-89
2023/01/04 13:43:13;;;;;;;12.20;2.15;;;;;;;;;;6215111;23;20016;-90
2023/01/04 13:45:58;;;;;;;24.15;3.63;;;;;;;;;;6215667;23;20015;-89
2023/01/04 13:48:25;;;;;;;12.18;3.45;;;;;;;;;;6214741;23;20011;-89
2023/01/04 13:51:18;;;;;;;15.52;2.45;;;;;;;;;;6215765;23;20054;-90
2023/01/04 13:53:57;;;;;;;8.20;1.83;;;;;;;;;;6206765;23;20004;-90
2023/01/04 13:56:26;;;;;;;19.63;2.63;;;;;;;;;;6215422;23;20008;-90
2023/01/04 13:58:54;;;;;;;9.35;2.38;;;;;;;;;;6214554;23;20004;-90
2023/01/04 14:01:26;;;;;;;11.93;2.53;;;;;;;;;;6215362;23;20373;-91
2023/01/04 14:03:54;;;;;;;18.08;3.47;;;;;;;;;;6215604;23;20008;-90
2023/01/04 14:06:23;;;;;;;15.82;3.08;;;;;;;;;;6215587;23;20775;-91
2023/01/04 14:09:04;;;;;;;20.15;4.05;;;;;;;;;;6215331;23;20657;-90
2023/01/04 14:14:21;;;;;;;14.50;3.33;;;;;;;;;;6241164;23;20046;-91
2023/01/04 14:16:48;;;;;;;12.20;2.70;;;;;;;;;;6214743;23;20383;-90
2023/01/04 14:19:47;;;;;;;24.13;3.13;;;;;;;;;;6212995;23;20045;-90
2023/01/04 14:22:22;;;;;;;12.18;2.88;;;;;;;;;;6132529;23;20008;-90
2023/01/04 14:24:50;;;;;;;17.00;3.23;;;;;;;;;;6214464;23;20178;-90
2023/01/04 14:27:34;;;;;;;18.52;3.35;;;;;;;;;;6188988;23;20239;-91
2023/01/04 14:30:01;;;;;;;18.23;5.20;;;;;;;;;;6213935;23;20004;-91
2023/01/04 14:32:28;;;;;;;20.98;2.13;;;;;;;;;;6214522;23;20009;-90
2023/01/04 14:34:55;;;;;;;9.75;1.50;;;;;;;;;;6189669;23;20011;-90
2023/01/04 14:37:21;;;;;;;13.95;2.80;;;;;;;;;;6188712;23;20065;-91
2023/01/04 14:39:47;;;;;;;23.50;3.50;;;;;;;;;;6188996;23;20508;-91
2023/01/04 14:42:34;;;;;;;14.10;3.13;;;;;;;;;;6208645;22;20088;-90
2023/01/04 14:45:00;;;;;;;9.52;2.38;;;;;;;;;;6244005;23;20008;-90
2023/01/04 14:47:29;;;;;;;12.52;2.03;;;;;;;;;;6217559;23;20108;-90
2023/01/04 14:49:55;;;;;;;25.58;4.53;;;;;;;;;;6243160;23;20328;-90
2023/01/04 14:52:54;;;;;;;;;;;;;;;;;;;;;
2023/01/04 14:55:22;;;;;;;18.98;2.58;;;;;;;;;;6241423;23;20079;-90
2023/01/04 14:57:48;;;;;;;31.98;3.15;;;;;;;;;;6215066;23;20004;-90
2023/01/04 15:00:15;;;;;;;23.58;2.95;;;;;;;;;;6216615;23;20016;-90
2023/01/04 15:02:44;;;;;;;16.85;3.10;;;;;;;;;;6241693;23;20053;-90
2023/01/04 15:05:13;;;;;;;7.38;1.85;;;;;;;;;;6216049;23;20069;-90
2023/01/04 15:07:39;;;;;;;19.98;3.78;;;;;;;;;;6214252;23;20055;-91
2023/01/04 15:10:26;;;;;;;15.15;3.90;;;;;;;;;;6241979;23;20004;-91
2023/01/04 15:12:52;;;;;;;22.77;3.38;;;;;;;;;;6244705;23;20008;-90
2023/01/04 15:15:19;;;;;;;25.80;4.03;;;;;;;;;;6216009;23;20012;-90
2023/01/04 15:17:45;;;;;;;7.97;2.30;;;;;;;;;;6241500;23;20000;-90
2023/01/04 15:20:11;;;;;;;26.10;2.92;;;;;;;;;;6216604;23;20062;-90
2023/01/04 15:22:38;;;;;;;20.58;3.17;;;;;;;;;;6239925;23;20118;-90
2023/01/04 15:25:04;;;;;;;16.73;3.28;;;;;;;;;;6242102;23;20008;-90
2023/01/04 15:27:30;;;;;;;22.85;3.05;;;;;;;;;;6215322;23;20016;-90
2023/01/04 15:30:03;;;;;;;12.88;3.03;;;;;;;;;;6216817;23;20015;-91
2023/01/04 15:32:31;;;;;;;25.60;3.40;;;;;;;;;;6240972;23;20011;-91
2023/01/04 15:34:57;;;;;;;15.57;2.63;;;;;;;;;;6243220;23;20365;-91
2023/01/04 15:37:23;;;;;;;13.13;2.17;;;;;;;;;;6215942;23;20008;-91
2023/01/04 15:39:49;;;;;;;19.67;3.30;;;;;;;;;;6215624;23;20175;-90
2023/01/04 15:45:00;;;;;;;25.15;3.78;;;;;;;;;;6243163;23;20506;-91
2023/01/04 15:47:28;;;;;;;29.08;3.75;;;;;;;;;;6217042;23;20516;-90
2023/01/04 15:49:54;;;;;;;24.55;3.65;;;;;;;;;;6241640;23;20054;-91
2023/01/04 15:52:20;;;;;;;19.65;4.78;;;;;;;;;;6241498;23;20597;-91
2023/01/04 15:54:46;;;;;;;16.85;3.47;;;;;;;;;;6216115;23;20015;-90
2023/01/04 15:57:12;;;;;;;22.80;3.38;;;;;;;;;;6216318;23;20023;-90
2023/01/04 15:59:39;;;;;;;14.43;3.75;;;;;;;;;;6215713;23;20046;-91
2023/01/04 16:02:05;;;;;;;19.10;3.13;;;;;;;;;;6240883;23;20001;-91
2023/01/04 16:04:31;;;;;;;14.77;4.40;;;;;;;;;;6215671;23;20004;-91
2023/01/04 16:06:57;;;;;;;20.08;3.55;;;;;;;;;;6242750;23;20008;-90
2023/01/04 16:09:24;;;;;;;22.10;3.97;;;;;;;;;;6216981;23;20100;-90
2023/01/04 16:14:37;;;;;;;9.73;2.38;;;;;;;;;;6243324;23;20539;-90
2023/01/04 16:17:04;;;;;;;13.13;3.10;;;;;;;;;;6240950;23;20318;-91
2023/01/04 16:19:33;;;;;;;20.20;3.40;;;;;;;;;;6216316;23;20012;-91
2023/01/04 16:21:59;;;;;;;17.23;4.53;;;;;;;;;;6216173;23;20008;-91
2023/01/04 16:24:25;;;;;;;25.08;3.35;;;;;;;;;;6241955;23;20008;-91
2023/01/04 16:26:52;;;;;;;18.10;3.65;;;;;;;;;;6240197;23;20015;-91
2023/01/04 16:29:19;;;;;;;22.23;3.15;;;;;;;;;;6216787;23;20008;-90
2023/01/04 16:31:45;;;;;;;17.10;2.53;;;;;;;;;;6216761;23;20684;-90
2023/01/04 16:34:12;;;;;;;15.38;2.50;;;;;;;;;;6241906;23;20083;-90
2023/01/04 16:36:38;;;;;;;20.35;3.05;;;;;;;;;;6215694;23;20098;-91
2023/01/04 16:39:04;;;;;;;19.73;3.17;;;;;;;;;;6241833;23;20004;-91
2023/01/04 16:41:31;;;;;;;23.02;3.15;;;;;;;;;;6247957;22;20534;-92
2023/01/04 16:43:58;;;;;;;16.98;3.63;;;;;;;;;;6222481;22;20073;-91
2023/01/04 16:46:25;;;;;;;23.83;3.83;;;;;;;;;;6248817;22;20007;-93
2023/01/04 16:48:56;;;;;;;22.70;2.40;;;;;;;;;;6247180;22;20005;-93
2023/01/04 16:51:25;;;;;;;19.30;2.50;;;;;;;;;;6247371;22;20061;-93
2023/01/04 19:10:57;;;;;;;12.05;2.15;;;;;;;;;;6240558;22;20111;-93
2023/01/04 19:13:23;;;;;;;7.10;2.15;;;;;;;;;;6239804;23;20437;-93
2023/01/04 19:15:49;;;;;;;14.45;3.15;;;;;;;;;;6215391;23;20092;-93
2023/01/04 19:18:15;;;;;;;19.88;3.75;;;;;;;;;;6245332;22;20022;-92
2023/01/04 19:20:42;;;;;;;11.63;2.28;;;;;;;;;;6219735;22;20503;-92
2023/01/04 19:23:08;;;;;;;34.60;3.22;;;;;;;;;;6245223;22;20008;-92
2023/01/04 19:25:37;;;;;;;19.98;3.67;;;;;;;;;;6245433;22;20038;-92
2023/01/04 19:28:10;;;;;;;21.65;2.20;;;;;;;;;;6246973;22;20004;-93
2023/01/04 19:31:09;;;;;;;19.98;3.60;;;;;;;;;;6247563;22;20023;-93
2023/01/04 19:33:58;;;;;;;34.47;4.05;;;;;;;;;;6200513;22;20491;-92
2023/01/04 19:36:51;;;;;;;;;;;;;;;;;;;;;
2023/01/04 19:39:54;;;;;;;27.73;3.15;;;;;;;;;;6280036;22;20103;-94
2023/01/04 19:58:14;;;;;;;25.45;3.80;;;;;;;;;;6009080;23;20011;-94
2023/01/04 20:04:18;;;;;;;15.55;2.00;;;;;;;;;;6009636;23;20054;-94
2023/01/04 20:10:14;;;;;;;14.85;2.72;;;;;;;;;;6033856;23;20120;-94
2023/01/04 20:13:09;;;;;;;;;;;;;;;;;;;;;
2023/01/04 20:24:20;;;;;;;22.33;3.45;;;;;;;;;;6204270;22;20444;-95
2023/01/04 20:26:47;;;;;;;12.60;3.17;;;;;;;;;;6217938;23;20023;-95
2023/01/04 20:29:13;;;;;;;15.70;2.85;;;;;;;;;;6243978;23;20070;-95
2023/01/04 20:31:40;;;;;;;36.22;5.40;;;;;;;;;;6243474;23;20352;-95
2023/01/04 20:34:07;;;;;;;20.80;3.30;;;;;;;;;;6242853;23;20003;-95
2023/01/04 20:36:34;;;;;;;38.92;4.75;;;;;;;;;;6243509;23;20027;-95
2023/01/04 20:39:01;;;;;;;29.77;3.58;;;;;;;;;;6243920;23;20004;-95
2023/01/04 20:45:12;;;;;;;;;;;;;;;;;;;;;
2023/01/04 20:47:41;;;;;;;28.88;3.97;;;;;;;;;;6245006;23;20299;-96
2023/01/04 20:50:12;;;;;;;31.60;4.85;;;;;;;;;;6241598;23;20340;-95
2023/01/04 20:52:58;;;;;;;36.88;3.42;;;;;;;;;;6237105;23;20008;-96
2023/01/04 20:55:29;;;;;;;;;;;;;;;;;;6244281;23;20011;-95
2023/01/04 20:57:55;;;;;;;26.00;3.60;;;;;;;;;;6215899;23;19904;-96
2023/01/04 21:00:29;;;;;;;30.52;3.72;;;;;;;;;;6242305;23;20341;-95
2023/01/04 21:03:06;;;;;;;34.95;5.10;;;;;;;;;;6243185;23;20008;-96
2023/01/04 21:05:52;;;;;;;21.30;3.42;;;;;;;;;;6220119;23;20071;-95
2023/01/04 21:08:24;;;;;;;23.80;5.75;;;;;;;;;;6175494;23;20090;-96
2023/01/04 21:10:51;;;;;;;20.40;3.03;;;;;;;;;;6103292;23;20089;-96
2023/01/04 21:13:27;;;;;;;27.48;3.65;;;;;;;;;;6128374;23;20017;-96
2023/01/04 21:15:56;;;;;;;28.20;4.88;;;;;;;;;;6105726;23;20038;-95
2023/01/04 21:18:25;;;;;;;17.15;4.53;;;;;;;;;;6104406;23;20013;-96
2023/01/04 21:21:02;;;;;;;;;;;;;;;;;;;;;
2023/01/04 21:23:37;;;;;;;17.52;2.90;;;;;;;;;;6150252;23;20116;-96
2023/01/04 21:49:26;;;;;;;20.70;4.07;;;;;;;;;;6248124;22;19919;-94
2023/01/04 21:51:52;;;;;;;43.25;5.07;;;;;;;;;;6220336;22;20004;-95
2023/01/04 21:54:18;;;;;;;51.53;6.53;;;;;;;;;;6220789;22;20035;-95
2023/01/04 21:56:45;;;;;;;22.70;5.57;;;;;;;;;;6222610;22;20011;-95
2023/01/04 21:59:11;;;;;;;21.77;3.88;;;;;;;;;;6221801;22;20093;-95
2023/01/04 22:01:37;;;;;;;53.08;7.45;;;;;;;;;;6223473;22;20038;-94